createdAt,value
2018-05-18T00:01:17.981Z,10.30
2018-05-18T00:03:46.136Z,8.77
2018-05-18T00:06:13.587Z,5.43
2018-05-18T00:08:41.847Z,11.70
2018-05-18T00:11:09.226Z,9.77
2018-05-18T00:13:36.654Z,8.87
2018-05-18T00:16:04.877Z,6.00
2018-05-18T00:18:32.312Z,10.30
2018-05-18T00:21:00.520Z,9.57
2018-05-18T00:23:28.714Z,6.70
2018-05-18T00:25:56.146Z,7.17
2018-05-18T00:28:23.586Z,9.30
2018-05-18T00:30:51.052Z,9.17
2018-05-18T00:33:19.222Z,8.70
2018-05-18T00:35:46.686Z,8.50
2018-05-18T00:38:14.127Z,6.87
2018-05-18T00:40:41.623Z,6.00
2018-05-18T00:43:09.768Z,8.67
2018-05-18T00:45:37.193Z,4.80
2018-05-18T00:48:05.401Z,7.67
2018-05-18T00:50:32.839Z,6.87
2018-05-18T00:53:01.045Z,10.27
2018-05-18T00:55:41.420Z,5.37
2018-05-18T00:58:08.859Z,8.73
2018-05-18T01:00:36.285Z,8.23
2018-05-18T01:03:04.491Z,7.50
2018-05-18T01:05:31.927Z,7.40
2018-05-18T01:08:00.124Z,7.80
2018-05-18T01:10:27.645Z,9.43
2018-05-18T01:12:54.993Z,6.47
2018-05-18T01:15:23.210Z,3.53
2018-05-18T01:17:50.642Z,7.67
2018-05-18T01:20:18.851Z,6.33
2018-05-18T01:22:46.279Z,7.10
2018-05-18T01:25:14.489Z,5.60
2018-05-18T01:27:41.922Z,8.67
2018-05-18T01:30:09.368Z,9.40
2018-05-18T01:32:37.575Z,19.43
2018-05-18T01:35:05.000Z,7.37
2018-05-18T01:37:33.232Z,8.20
2018-05-18T01:40:00.645Z,10.40
2018-05-18T01:42:28.090Z,12.90
2018-05-18T01:44:55.517Z,5.37
2018-05-18T01:47:23.008Z,9.50
2018-05-18T01:49:50.442Z,9.10
2018-05-18T01:52:17.889Z,10.93
2018-05-18T01:54:45.325Z,7.47
2018-05-18T01:57:12.774Z,8.83
2018-05-18T01:59:40.205Z,12.33
2018-05-18T02:02:07.655Z,5.57
2018-05-18T02:04:35.851Z,10.83
2018-05-18T02:07:03.282Z,6.90
2018-05-18T02:09:31.485Z,7.83
2018-05-18T02:11:58.931Z,11.50
2018-05-18T02:14:26.368Z,17.27
2018-05-18T02:16:53.820Z,8.03
2018-05-18T02:19:22.033Z,9.37
2018-05-18T02:21:49.470Z,11.47
2018-05-18T02:24:16.914Z,12.60
2018-05-18T02:26:45.130Z,11.63
2018-05-18T02:29:12.579Z,9.80
2018-05-18T02:31:40.029Z,12.00
2018-05-18T02:34:07.465Z,13.50
2018-05-18T02:36:35.674Z,12.67
2018-05-18T02:39:03.127Z,11.73
2018-05-18T02:41:30.584Z,10.67
2018-05-18T02:43:58.014Z,11.40
2018-05-18T02:46:26.226Z,11.70
2018-05-18T02:48:53.677Z,10.63
2018-05-18T02:51:21.119Z,12.60
2018-05-18T02:53:48.555Z,14.67
2018-05-18T02:56:16.774Z,16.60
2018-05-18T02:58:44.220Z,16.27
2018-05-18T03:01:11.654Z,17.63
2018-05-18T03:03:39.101Z,19.17
2018-05-18T03:06:07.306Z,11.87
2018-05-18T03:08:34.749Z,17.30
2018-05-18T03:11:02.185Z,17.50
2018-05-18T03:13:29.625Z,21.57
2018-05-18T03:15:57.065Z,20.97
2018-05-18T03:18:24.498Z,15.40
2018-05-18T03:20:51.930Z,16.27
2018-05-18T03:23:19.385Z,20.10
2018-05-18T03:25:47.593Z,18.80
2018-05-18T03:28:15.034Z,22.83
2018-05-18T03:30:42.488Z,20.27
2018-05-18T03:33:09.927Z,18.10
2018-05-18T03:35:38.149Z,21.93
2018-05-18T03:38:05.593Z,20.97
2018-05-18T03:40:33.045Z,23.50
2018-05-18T03:43:00.477Z,26.40
2018-05-18T03:45:28.698Z,25.50
2018-05-18T03:47:56.140Z,26.43
2018-05-18T03:50:23.577Z,24.30
2018-05-18T03:52:51.037Z,30.87
2018-05-18T03:55:19.227Z,24.60
2018-05-18T03:57:46.680Z,24.33
2018-05-18T04:00:14.122Z,28.43
2018-05-18T04:02:53.346Z,26.70
2018-05-18T04:05:33.397Z,20.97
2018-05-18T04:08:13.339Z,27.50
2018-05-18T04:10:40.779Z,26.60
2018-05-18T04:13:08.229Z,25.47
2018-05-18T04:15:35.675Z,27.50
2018-05-18T04:18:03.130Z,28.90
2018-05-18T04:20:30.573Z,36.33
2018-05-18T04:22:58.005Z,29.93
2018-05-18T04:25:25.450Z,36.80
2018-05-18T04:27:53.653Z,34.67
2018-05-18T04:30:21.149Z,36.23
2018-05-18T04:32:48.533Z,33.63
2018-05-18T04:35:16.751Z,29.90
2018-05-18T04:37:44.190Z,33.23
2018-05-18T04:40:11.637Z,33.70
2018-05-18T04:42:39.837Z,34.10
2018-05-18T04:45:07.290Z,33.33
2018-05-18T04:47:34.737Z,28.70
2018-05-18T04:50:02.170Z,32.97
2018-05-18T04:52:30.382Z,33.20
2018-05-18T04:54:57.823Z,30.70
2018-05-18T04:57:25.265Z,32.13
2018-05-18T04:59:53.469Z,38.10
2018-05-18T05:02:20.921Z,39.50
2018-05-18T05:04:48.358Z,36.00
2018-05-18T05:07:16.569Z,37.10
2018-05-18T05:09:44.006Z,33.40
2018-05-18T05:12:11.450Z,35.97
2018-05-18T05:14:39.656Z,42.87
2018-05-18T05:17:07.101Z,51.87
2018-05-18T05:19:34.546Z,52.07
2018-05-18T05:22:02.002Z,44.07
2018-05-18T05:24:30.214Z,46.53
2018-05-18T05:26:57.653Z,41.27
2018-05-18T05:29:25.098Z,40.83
2018-05-18T05:31:52.539Z,37.60
2018-05-18T05:34:20.752Z,38.67
2018-05-18T05:36:48.196Z,42.43
2018-05-18T05:39:15.633Z,40.13
2018-05-18T05:41:43.845Z,40.47
2018-05-18T05:44:11.302Z,44.43
2018-05-18T05:46:38.738Z,39.30
2018-05-18T05:49:06.184Z,46.80
2018-05-18T05:51:34.389Z,45.30
2018-05-18T05:54:01.837Z,44.77
2018-05-18T05:56:29.270Z,45.20
2018-05-18T05:58:57.485Z,42.47
2018-05-18T06:01:24.917Z,45.00
2018-05-18T06:03:52.610Z,42.00
2018-05-18T06:06:20.062Z,39.77
2018-05-18T06:08:47.502Z,40.30
2018-05-18T06:11:14.941Z,42.60
2018-05-18T06:13:43.158Z,42.00
2018-05-18T06:16:10.603Z,41.37
2018-05-18T06:18:38.038Z,37.50
2018-05-18T06:21:05.495Z,39.03
2018-05-18T06:23:33.714Z,39.07
2018-05-18T06:26:01.155Z,36.17
2018-05-18T06:28:28.588Z,44.77
2018-05-18T06:30:56.045Z,42.77
2018-05-18T06:33:23.501Z,37.87
2018-05-18T06:35:51.704Z,38.10
2018-05-18T06:38:19.146Z,37.60
2018-05-18T06:40:46.587Z,40.00
2018-05-18T06:43:14.797Z,36.60
2018-05-18T06:45:42.237Z,39.70
2018-05-18T06:48:09.694Z,42.47
2018-05-18T06:50:37.137Z,38.30
2018-05-18T06:53:05.345Z,42.07
2018-05-18T06:55:32.791Z,35.20
2018-05-18T06:58:00.234Z,33.90
2018-05-18T07:00:27.677Z,39.00
2018-05-18T07:02:55.886Z,31.00
2018-05-18T07:05:23.326Z,37.60
2018-05-18T07:07:50.786Z,39.50
2018-05-18T07:10:18.225Z,40.87
2018-05-18T07:12:46.457Z,33.70
2018-05-18T07:15:13.893Z,36.20
2018-05-18T07:17:41.339Z,34.90
2018-05-18T07:20:08.788Z,35.60
2018-05-18T07:22:36.223Z,36.27
2018-05-18T07:25:04.438Z,31.60
2018-05-18T07:27:31.869Z,34.30
2018-05-18T07:30:00.147Z,41.83
2018-05-18T07:32:27.526Z,42.23
2018-05-18T07:34:54.969Z,35.63
2018-05-18T07:37:22.408Z,44.43
2018-05-18T07:39:50.624Z,38.73
2018-05-18T07:42:18.052Z,37.10
2018-05-18T07:44:45.495Z,38.30
2018-05-18T07:47:13.713Z,36.97
2018-05-18T07:49:41.133Z,40.63
2018-05-18T07:52:09.341Z,38.17
2018-05-18T07:54:36.783Z,38.50
2018-05-18T07:57:04.223Z,36.93
2018-05-18T07:59:32.441Z,44.00
2018-05-18T08:01:59.877Z,40.03
2018-05-18T08:04:27.321Z,37.93
2018-05-18T08:06:55.554Z,34.63
2018-05-18T08:09:22.999Z,36.30
2018-05-18T08:11:50.467Z,38.93
2018-05-18T08:14:17.889Z,36.60
2018-05-18T08:16:45.333Z,38.77
2018-05-18T08:19:12.793Z,41.77
2018-05-18T08:21:40.245Z,38.17
2018-05-18T08:24:08.441Z,39.27
2018-05-18T08:26:35.880Z,39.63
2018-05-18T08:32:07.042Z,35.20
2018-05-18T08:34:34.477Z,36.57
2018-05-18T08:37:01.957Z,30.40
2018-05-18T08:39:30.169Z,34.30
2018-05-18T08:41:57.615Z,34.47
2018-05-18T08:44:25.071Z,33.93
2018-05-18T08:46:52.497Z,33.20
2018-05-18T08:49:20.713Z,36.87
2018-05-18T08:51:48.150Z,51.27
2018-05-18T08:54:15.601Z,39.07
2018-05-18T08:56:43.050Z,32.40
2018-05-18T08:59:10.506Z,34.30
2018-05-18T09:01:38.714Z,31.27
2018-05-18T09:04:06.158Z,36.37
2018-05-18T09:06:33.608Z,31.90
2018-05-18T09:09:01.061Z,30.20
2018-05-18T09:11:28.507Z,29.13
2018-05-18T09:13:56.718Z,32.03
2018-05-18T09:16:24.166Z,27.50
2018-05-18T09:18:51.606Z,29.80
2018-05-18T09:21:19.061Z,33.87
2018-05-18T09:23:46.499Z,45.93
2018-05-18T09:26:13.964Z,38.20
2018-05-18T12:15:31.914Z,33.90
2018-05-18T12:18:00.387Z,28.30
2018-05-18T12:20:27.859Z,27.43
2018-05-18T12:22:55.301Z,30.63
2018-05-18T12:25:22.759Z,27.43
2018-05-18T12:27:50.222Z,39.57
2018-05-18T12:30:32.154Z,41.83
2018-05-18T12:32:59.598Z,34.40
2018-05-18T12:35:27.051Z,40.73
2018-05-18T12:37:54.509Z,38.93
2018-05-18T12:40:21.968Z,41.27
2018-05-18T12:42:49.419Z,24.63
2018-05-18T12:45:16.894Z,30.37
2018-05-18T12:47:44.347Z,33.13
2018-05-18T12:50:23.275Z,40.70
2018-05-18T12:52:50.726Z,39.60
2018-05-18T12:55:18.174Z,24.87
2018-05-18T12:57:45.634Z,38.43
2018-05-18T13:00:13.095Z,25.00
2018-05-18T13:02:59.411Z,28.40
2018-05-18T13:05:26.861Z,26.40
2018-05-18T13:07:54.331Z,30.17
2018-05-18T13:10:21.770Z,20.27
2018-05-18T13:12:49.241Z,28.87
2018-05-18T13:15:16.697Z,39.43
2018-05-18T13:17:44.158Z,25.67
2018-05-18T13:20:11.606Z,25.80
2018-05-18T13:22:39.046Z,34.13
2018-05-18T13:25:06.544Z,25.10
2018-05-18T13:27:33.964Z,35.43
2018-05-18T13:30:01.419Z,31.73
2018-05-18T13:32:28.867Z,32.63
2018-05-18T13:34:56.318Z,37.83
2018-05-18T13:37:23.753Z,47.70
2018-05-18T13:39:51.214Z,29.30
2018-05-18T13:42:18.683Z,36.20
2018-05-18T13:44:46.427Z,23.37
2018-05-18T13:47:13.956Z,19.60
2018-05-18T13:49:41.496Z,31.73
2018-05-18T13:52:09.023Z,27.40
2018-05-18T13:54:37.040Z,23.40
2018-05-18T13:57:04.605Z,21.43
2018-05-18T13:59:31.999Z,30.63
2018-05-18T14:02:02.260Z,27.53
2018-05-18T14:04:29.738Z,31.23
2018-05-18T14:06:57.770Z,37.67
2018-05-18T14:09:25.218Z,23.03
2018-05-18T14:11:52.663Z,33.03
2018-05-18T14:14:20.167Z,22.07
2018-05-18T14:16:47.608Z,27.90
2018-05-18T14:19:15.059Z,23.30
2018-05-18T14:21:44.425Z,38.27
2018-05-18T14:24:13.375Z,21.83
2018-05-18T14:26:40.834Z,33.00
2018-05-18T14:29:08.283Z,28.30
2018-05-18T14:31:35.798Z,23.57
2018-05-18T14:34:03.270Z,29.23
2018-05-18T14:36:30.726Z,25.93
2018-05-18T14:38:58.183Z,17.73
2018-05-18T14:41:25.645Z,29.63
2018-05-18T14:43:53.111Z,36.73
2018-05-18T14:46:20.602Z,22.83
2018-05-18T14:48:48.059Z,31.90
2018-05-18T14:51:15.589Z,24.13
2018-05-18T14:53:44.190Z,23.13
2018-05-18T14:56:11.895Z,25.00
2018-05-18T14:58:39.446Z,27.10
2018-05-18T15:01:06.806Z,28.13
2018-05-18T15:03:35.054Z,20.70
2018-05-18T15:06:02.499Z,22.57
2018-05-18T15:08:29.968Z,24.63
2018-05-18T15:11:04.014Z,25.30
2018-05-18T15:13:31.394Z,24.03
2018-05-18T15:15:58.859Z,28.90
2018-05-18T15:18:26.329Z,23.23
2018-05-18T15:20:53.818Z,16.07
2018-05-18T15:23:21.261Z,33.00
2018-05-18T15:25:48.714Z,26.43
2018-05-18T15:28:16.177Z,26.93
2018-05-18T15:30:43.630Z,25.23
2018-05-18T15:33:11.099Z,18.30
2018-05-18T15:35:38.580Z,17.37
2018-05-18T15:38:06.710Z,26.20
2018-05-18T15:40:34.272Z,19.57
2018-05-18T15:43:02.805Z,22.73
2018-05-18T15:45:30.812Z,21.67
2018-05-18T15:47:58.667Z,13.50
2018-05-18T15:50:26.198Z,21.03
2018-05-18T15:52:53.688Z,27.33
2018-05-18T15:55:21.176Z,19.50
2018-05-18T15:57:48.719Z,25.20
2018-05-18T16:00:16.700Z,27.23
2018-05-18T16:02:44.224Z,29.87
2018-05-18T16:05:12.591Z,37.50
2018-05-18T16:07:43.486Z,30.87
2018-05-18T16:10:11.511Z,35.83
2018-05-18T16:12:39.922Z,25.40
2018-05-18T16:15:11.075Z,28.53
2018-05-18T16:17:38.938Z,28.07
2018-05-18T16:20:06.953Z,25.03
2018-05-18T16:22:35.488Z,25.67
2018-05-18T16:25:02.947Z,30.83
2018-05-18T16:27:30.435Z,18.83
2018-05-18T16:29:57.901Z,33.73
2018-05-18T16:32:26.279Z,30.73
2018-05-18T16:34:55.681Z,31.70
2018-05-18T16:37:37.705Z,32.17
2018-05-18T16:40:06.020Z,28.67
2018-05-18T16:42:33.370Z,43.93
2018-05-18T16:45:01.380Z,32.10
2018-05-18T16:47:28.878Z,33.60
2018-05-18T16:49:56.410Z,35.00
2018-05-18T16:52:23.902Z,34.43
2018-05-18T16:54:52.239Z,26.57
2018-05-18T16:57:22.798Z,19.13
2018-05-18T17:30:25.828Z,30.77
2018-05-18T17:32:53.704Z,24.37
2018-05-18T17:35:21.211Z,28.30
2018-05-18T17:37:48.748Z,21.37
2018-05-18T17:40:16.229Z,20.63
2018-05-18T17:42:43.686Z,18.90
2018-05-18T17:45:11.230Z,20.03
2018-05-18T17:47:39.573Z,25.73
2018-05-18T17:50:07.105Z,28.20
2018-05-18T17:52:35.190Z,24.00
2018-05-18T17:55:02.767Z,25.13
2018-05-18T17:57:30.256Z,35.00
2018-05-18T17:59:57.711Z,18.03
2018-05-18T18:02:25.175Z,25.80
2018-05-18T18:04:52.745Z,34.23
2018-05-18T18:07:20.995Z,32.07
2018-05-18T18:09:48.465Z,27.50
2018-05-18T18:12:15.988Z,27.73
2018-05-18T18:14:43.486Z,30.63
2018-05-18T18:17:11.157Z,21.67
2018-05-18T18:19:39.348Z,23.87
2018-05-18T18:22:08.918Z,24.40
2018-05-18T18:24:44.178Z,34.67
2018-05-18T18:27:13.010Z,27.37
2018-05-18T18:29:43.574Z,21.93
2018-05-18T18:32:11.707Z,33.73
2018-05-18T18:34:41.103Z,44.77
2018-05-18T18:37:10.357Z,31.27
2018-05-18T18:39:39.460Z,29.23
2018-05-18T18:42:07.115Z,27.57
2018-05-18T18:44:35.260Z,28.83
2018-05-18T18:47:03.269Z,27.97
2018-05-18T18:49:30.733Z,24.47
2018-05-18T18:52:02.099Z,32.30
2018-05-18T18:54:29.547Z,46.20
2018-05-18T18:56:57.237Z,44.23
2018-05-18T18:59:27.107Z,31.23
2018-05-18T19:01:55.578Z,38.27
2018-05-18T19:04:31.668Z,36.33
2018-05-18T19:07:38.306Z,25.27
2018-05-18T19:10:07.054Z,26.37
2018-05-18T19:12:35.003Z,29.53
2018-05-18T19:15:02.513Z,37.33
2018-05-18T19:17:30.015Z,24.90
2018-05-18T19:19:57.531Z,29.50
2018-05-18T19:22:25.008Z,41.73
2018-05-18T19:24:52.454Z,33.93
2018-05-18T19:27:19.902Z,25.00
2018-05-18T19:29:47.471Z,45.17
2018-05-18T19:32:14.910Z,35.37
2018-05-18T19:34:42.962Z,29.93
2018-05-18T19:37:17.726Z,25.40
2018-05-18T19:39:45.447Z,21.60
2018-05-18T19:42:13.675Z,11.97
2018-05-18T19:44:41.363Z,39.17
2018-05-18T19:47:08.822Z,29.37
2018-05-18T19:49:36.331Z,20.70
2018-05-18T19:52:03.819Z,24.37
2018-05-18T19:54:32.126Z,28.07
2018-05-18T19:56:59.923Z,24.17
2018-05-18T19:59:28.261Z,26.37
2018-05-18T20:01:55.722Z,28.03
2018-05-18T20:04:23.262Z,21.93
2018-05-18T20:06:50.709Z,29.10
2018-05-18T20:09:18.159Z,24.73
2018-05-18T20:11:46.379Z,22.10
2018-05-18T20:14:14.809Z,31.12
2018-05-18T20:16:42.301Z,29.77
2018-05-18T20:19:09.778Z,24.80
2018-05-18T20:21:37.275Z,32.10
2018-05-18T20:24:04.722Z,27.73
2018-05-18T20:26:32.189Z,36.07
2018-05-18T20:29:00.514Z,22.10
2018-05-18T20:31:28.048Z,29.40
2018-05-18T20:33:55.493Z,25.03
2018-05-18T20:36:23.595Z,30.30
2018-05-18T20:38:51.136Z,27.63
2018-05-18T20:41:18.692Z,33.43
2018-05-18T20:43:46.184Z,33.00
2018-05-18T20:46:13.697Z,28.73
2018-05-18T20:48:41.794Z,26.63
2018-05-18T20:51:09.255Z,24.17
2018-05-18T20:53:40.315Z,37.53
2018-05-18T20:56:08.845Z,36.93
2018-05-18T20:58:36.783Z,44.43
2018-05-18T21:01:04.297Z,27.67
2018-05-18T21:03:31.940Z,31.27
2018-05-18T21:06:01.342Z,35.70
2018-05-18T21:08:30.719Z,27.80
2018-05-18T21:10:58.251Z,22.07
2018-05-18T21:13:25.881Z,30.37
2018-05-18T21:15:54.254Z,36.00
2018-05-18T21:18:23.119Z,29.30
2018-05-18T21:20:58.446Z,32.60
2018-05-18T21:23:26.738Z,35.30
2018-05-18T21:26:06.860Z,26.30
2018-05-18T21:28:36.466Z,27.40
2018-05-18T21:31:08.625Z,19.10
2018-05-18T21:33:37.907Z,29.97
2018-05-18T21:38:40.724Z,31.97
2018-05-18T21:41:10.370Z,40.20
2018-05-18T21:46:38.585Z,35.13
2018-05-18T21:51:39.503Z,22.57
2018-05-18T22:00:28.903Z,23.53
2018-05-18T22:02:57.458Z,26.50
2018-05-18T22:18:11.602Z,23.13
2018-05-18T22:20:41.523Z,32.43
2018-05-18T22:23:09.633Z,26.23
2018-05-18T22:25:37.986Z,27.10
2018-05-18T22:28:06.613Z,38.90
2018-05-18T22:30:34.484Z,24.93
2018-05-18T22:33:14.643Z,28.03
2018-05-18T22:35:42.577Z,31.00
2018-05-18T22:38:10.279Z,26.63
2018-05-18T22:40:37.961Z,30.47
2018-05-18T22:43:07.245Z,23.10
2018-05-18T22:45:36.005Z,33.13
2018-05-18T22:48:04.285Z,39.63
2018-05-18T22:50:34.438Z,23.87
2018-05-18T23:01:28.204Z,24.37
2018-05-18T23:10:14.370Z,33.73
2018-05-18T23:13:12.865Z,30.30
2018-05-18T23:27:05.557Z,30.10
2018-05-18T23:32:46.393Z,26.10
2018-05-18T23:35:13.948Z,34.73
2018-05-18T23:37:42.388Z,22.97
2018-05-18T23:40:10.134Z,23.83
2018-05-18T23:42:37.779Z,27.07
2018-05-18T23:45:05.285Z,29.50
2018-05-18T23:47:32.798Z,34.37
2018-05-18T23:50:00.423Z,28.90
2018-05-18T23:52:28.055Z,33.67
2018-05-18T23:54:55.645Z,31.70
2018-05-18T23:57:23.241Z,28.57
2018-05-18T23:59:50.732Z,32.93
